PWSweather.com
Personal Weather Stations
Station Observations
BERGSLAGEN
Bergslagen, NoraSE

BergslagenNoraSE

Lat: 59.532278, Lon: 15.016132

Elevation: 492

Station Type: Davis Vantage Pro2 Plus Wireless

http://www.weather.tallasen.se

High Low Average
Temperature 33.1°F0.6°C 26.4°F-3.1°C 31.2°F-0.4°C
Dew Point 31.8°F-0.1°C 24.4°F-4.2°C 29.9°F-1.2°C
Winds 4.0 mph 6.4 kmh Calm Calm 1.0 mph SE1.6 kmh SE
Wind Gusts 13.0 mph20.9 kmh -- 6.0 mph9.7 kmh
Humidity 96% 92% 95%
Pressure 29.45 in997.3 mb 29.31 in992.6 mb -
Precipitation 0.14 in3.6 mm - -
Hour Temp Dew Point Humidity Winds Wind Gusts Pressure Precip Precip Rate Daily Precip Total
12:00 AM 26.4°F-3.1°C 24.4°F-4.2°C 92% 4.0 mph S6.4 kmh S 12.0 mph19.3 kmh 29.45 in997.3 mb 0.00 in0.0 mm 0.00 in0.0 mm 0.00 in0.0 mm
12:15 AM 26.4°F-3.1°C 24.4°F-4.2°C 92% 3.0 mph SE4.8 kmh SE 12.0 mph19.3 kmh 29.45 in997.3 mb 0.00 in0.0 mm 0.00 in0.0 mm 0.00 in0.0 mm
12:30 AM 26.4°F-3.1°C 24.4°F-4.2°C 92% 3.0 mph SSE4.8 kmh SSE 10.0 mph16.1 kmh 29.45 in997.3 mb 0.00 in0.0 mm 0.00 in0.0 mm 0.00 in0.0 mm
12:45 AM 26.6°F-3.0°C 24.6°F-4.1°C 92% 3.0 mph SSE4.8 kmh SSE 12.0 mph19.3 kmh 29.44 in997.0 mb 0.00 in0.0 mm 0.00 in0.0 mm 0.00 in0.0 mm
01:00 AM 26.6°F-3.0°C 24.6°F-4.1°C 92% 3.0 mph S4.8 kmh S 7.0 mph11.3 kmh 29.44 in997.0 mb 0.00 in0.0 mm 0.00 in0.0 mm 0.00 in0.0 mm
01:15 AM 26.6°F-3.0°C 24.6°F-4.1°C 92% 2.0 mph S3.2 kmh S 7.0 mph11.3 kmh 29.43 in996.6 mb 0.00 in0.0 mm 0.00 in0.0 mm 0.00 in0.0 mm
01:30 AM 26.8°F-2.9°C 24.8°F-4.0°C 92% 2.0 mph SSE3.2 kmh SSE 6.0 mph9.7 kmh 29.43 in996.6 mb 0.00 in0.0 mm 0.00 in0.0 mm 0.00 in0.0 mm
01:45 AM 27.0°F-2.8°C 25.2°F-3.8°C 93% 2.0 mph SE3.2 kmh SE 7.0 mph11.3 kmh 29.42 in996.3 mb 0.00 in0.0 mm 0.00 in0.0 mm 0.00 in0.0 mm
02:00 AM 27.1°F-2.7°C 25.4°F-3.7°C 93% 3.0 mph SSE4.8 kmh SSE 10.0 mph16.1 kmh 29.42 in996.3 mb 0.00 in0.0 mm 0.00 in0.0 mm 0.00 in0.0 mm
02:15 AM 27.3°F-2.6°C 25.6°F-3.6°C 93% 2.0 mph SSW3.2 kmh SSW 9.0 mph14.5 kmh 29.41 in995.9 mb 0.00 in0.0 mm 0.00 in0.0 mm 0.00 in0.0 mm
02:30 AM 27.5°F-2.5°C 25.7°F-3.5°C 93% 3.0 mph SSW4.8 kmh SSW 12.0 mph19.3 kmh 29.41 in995.9 mb 0.00 in0.0 mm 0.00 in0.0 mm 0.00 in0.0 mm
02:45 AM 27.9°F-2.3°C 26.1°F-3.3°C 93% 3.0 mph S4.8 kmh S 9.0 mph14.5 kmh 29.41 in995.9 mb 0.00 in0.0 mm 0.00 in0.0 mm 0.00 in0.0 mm
03:00 AM 28.0°F-2.2°C 26.3°F-3.2°C 93% 2.0 mph SSE3.2 kmh SSE 7.0 mph11.3 kmh 29.41 in995.9 mb 0.00 in0.0 mm 0.00 in0.0 mm 0.00 in0.0 mm
03:15 AM 28.2°F-2.1°C 26.5°F-3.1°C 93% 2.0 mph SE3.2 kmh SE 7.0 mph11.3 kmh 29.41 in995.9 mb 0.00 in0.0 mm 0.00 in0.0 mm 0.00 in0.0 mm
03:30 AM 28.2°F-2.1°C 26.5°F-3.1°C 93% 1.0 mph SSE1.6 kmh SSE 7.0 mph11.3 kmh 29.41 in995.9 mb 0.00 in0.0 mm 0.00 in0.0 mm 0.00 in0.0 mm
03:45 AM 28.4°F-2.0°C 26.6°F-3.0°C 93% 1.0 mph SSE1.6 kmh SSE 5.0 mph8.0 kmh 29.40 in995.6 mb 0.00 in0.0 mm 0.00 in0.0 mm 0.00 in0.0 mm
04:00 AM 28.6°F-1.9°C 27.1°F-2.7°C 94% 1.0 mph SSE1.6 kmh SSE 5.0 mph8.0 kmh 29.39 in995.3 mb 0.00 in0.0 mm 0.00 in0.0 mm 0.00 in0.0 mm
04:15 AM 28.8°F-1.8°C 27.3°F-2.6°C 94% 2.0 mph SSE3.2 kmh SSE 7.0 mph11.3 kmh 29.39 in995.3 mb 0.00 in0.0 mm 0.00 in0.0 mm 0.00 in0.0 mm
04:30 AM 28.9°F-1.7°C 27.4°F-2.6°C 94% 2.0 mph SE3.2 kmh SE 7.0 mph11.3 kmh 29.39 in995.3 mb 0.00 in0.0 mm 0.00 in0.0 mm 0.00 in0.0 mm
04:45 AM 28.9°F-1.7°C 27.4°F-2.6°C 94% 2.0 mph SSE3.2 kmh SSE 6.0 mph9.7 kmh 29.38 in994.9 mb 0.00 in0.0 mm 0.00 in0.0 mm 0.00 in0.0 mm
05:00 AM 29.3°F-1.5°C 27.8°F-2.3°C 94% 2.0 mph S3.2 kmh S 6.0 mph9.7 kmh 29.38 in994.9 mb 0.00 in0.0 mm 0.00 in0.0 mm 0.00 in0.0 mm
05:15 AM 29.3°F-1.5°C 27.8°F-2.3°C 94% 2.0 mph SE3.2 kmh SE 10.0 mph16.1 kmh 29.38 in994.9 mb 0.00 in0.0 mm 0.00 in0.0 mm 0.00 in0.0 mm
05:30 AM 29.5°F-1.4°C 28.2°F-2.1°C 95% 1.0 mph SE1.6 kmh SE 4.0 mph6.4 kmh 29.38 in994.9 mb 0.00 in0.0 mm 0.00 in0.0 mm 0.00 in0.0 mm
05:45 AM 29.7°F-1.3°C 28.4°F-2.0°C 95% 1.0 mph S1.6 kmh S 3.0 mph4.8 kmh 29.38 in994.9 mb 0.00 in0.0 mm 0.00 in0.0 mm 0.00 in0.0 mm
06:00 AM 30.0°F-1.1°C 28.8°F-1.8°C 95% 1.0 mph SE1.6 kmh SE 5.0 mph8.0 kmh 29.37 in994.6 mb 0.00 in0.0 mm 0.00 in0.0 mm 0.00 in0.0 mm
06:15 AM 30.4°F-0.9°C 29.1°F-1.6°C 95% 1.0 mph SE1.6 kmh SE 6.0 mph9.7 kmh 29.36 in994.2 mb 0.00 in0.0 mm 0.00 in0.0 mm 0.00 in0.0 mm
06:30 AM 30.6°F-0.8°C 29.3°F-1.5°C 95% 1.0 mph SE1.6 kmh SE 4.0 mph6.4 kmh 29.36 in994.2 mb 0.00 in0.0 mm 0.00 in0.0 mm 0.00 in0.0 mm
06:45 AM 30.6°F-0.8°C 29.3°F-1.5°C 95% 1.0 mph SE1.6 kmh SE 6.0 mph9.7 kmh 29.36 in994.2 mb 0.00 in0.0 mm 0.00 in0.0 mm 0.00 in0.0 mm
07:00 AM 30.6°F-0.8°C 29.3°F-1.5°C 95% 1.0 mph WSW1.6 kmh WSW 3.0 mph4.8 kmh 29.36 in994.2 mb 0.00 in0.0 mm 0.00 in0.0 mm 0.00 in0.0 mm
07:15 AM 30.7°F-0.7°C 29.7°F-1.3°C 96% 1.0 mph S1.6 kmh S 5.0 mph8.0 kmh 29.36 in994.2 mb 0.00 in0.0 mm 0.00 in0.0 mm 0.00 in0.0 mm
07:30 AM 31.1°F-0.5°C 30.1°F-1.1°C 96% 1.0 mph SE1.6 kmh SE 4.0 mph6.4 kmh 29.36 in994.2 mb 0.01 in0.3 mm 0.04 in1.0 mm 0.01 in0.3 mm
07:45 AM 31.5°F-0.3°C 30.5°F-0.8°C 96% 1.0 mph SE1.6 kmh SE 6.0 mph9.7 kmh 29.36 in994.2 mb 0.04 in1.0 mm 0.12 in3.0 mm 0.04 in1.0 mm
08:00 AM 31.8°F-0.1°C 30.8°F-0.7°C 96% 1.0 mph SE1.6 kmh SE 3.0 mph4.8 kmh 29.36 in994.2 mb 0.06 in1.5 mm 0.03 in0.8 mm 0.06 in1.5 mm
08:15 AM 32.0°F0.0°C 31.0°F-0.6°C 96% 1.0 mph SE1.6 kmh SE 5.0 mph8.0 kmh 29.35 in993.9 mb 0.07 in1.8 mm 0.04 in1.0 mm 0.07 in1.8 mm
08:30 AM 32.0°F0.0°C 31.0°F-0.6°C 96% 1.0 mph SE1.6 kmh SE 7.0 mph11.3 kmh 29.36 in994.2 mb 0.06 in1.5 mm 0.00 in0.0 mm 0.07 in1.8 mm
08:45 AM 32.2°F0.1°C 31.2°F-0.4°C 96% 1.0 mph SSE1.6 kmh SSE 6.0 mph9.7 kmh 29.36 in994.2 mb 0.03 in0.8 mm 0.00 in0.0 mm 0.07 in1.8 mm
09:00 AM 32.2°F0.1°C 31.2°F-0.4°C 96% 1.0 mph ESE1.6 kmh ESE 6.0 mph9.7 kmh 29.36 in994.2 mb 0.02 in0.5 mm 0.00 in0.0 mm 0.07 in1.8 mm
09:15 AM 32.2°F0.1°C 31.2°F-0.4°C 96% 1.0 mph SE1.6 kmh SE 5.0 mph8.0 kmh 29.35 in993.9 mb 0.00 in0.0 mm 0.00 in0.0 mm 0.07 in1.8 mm
09:30 AM 32.4°F0.2°C 31.3°F-0.4°C 96% 1.0 mph SE1.6 kmh SE 6.0 mph9.7 kmh 29.35 in993.9 mb 0.00 in0.0 mm 0.00 in0.0 mm 0.07 in1.8 mm
09:45 AM 32.4°F0.2°C 31.3°F-0.4°C 96% 1.0 mph SE1.6 kmh SE 4.0 mph6.4 kmh 29.34 in993.6 mb 0.00 in0.0 mm 0.00 in0.0 mm 0.07 in1.8 mm
10:00 AM 32.4°F0.2°C 31.3°F-0.4°C 96% 2.0 mph SSE3.2 kmh SSE 7.0 mph11.3 kmh 29.34 in993.6 mb 0.00 in0.0 mm 0.00 in0.0 mm 0.07 in1.8 mm
10:15 AM 32.4°F0.2°C 31.3°F-0.4°C 96% 2.0 mph SSE3.2 kmh SSE 6.0 mph9.7 kmh 29.34 in993.6 mb 0.00 in0.0 mm 0.00 in0.0 mm 0.07 in1.8 mm
10:30 AM 32.5°F0.3°C 31.5°F-0.3°C 96% 2.0 mph SSE3.2 kmh SSE 6.0 mph9.7 kmh 29.34 in993.6 mb 0.00 in0.0 mm 0.00 in0.0 mm 0.07 in1.8 mm
10:45 AM 32.5°F0.3°C 31.5°F-0.3°C 96% 2.0 mph SSE3.2 kmh SSE 7.0 mph11.3 kmh 29.34 in993.6 mb 0.00 in0.0 mm 0.00 in0.0 mm 0.07 in1.8 mm
11:00 AM 32.5°F0.3°C 31.5°F-0.3°C 96% 3.0 mph SSE4.8 kmh SSE 13.0 mph20.9 kmh 29.34 in993.6 mb 0.01 in0.3 mm 0.01 in0.3 mm 0.08 in2.0 mm
11:15 AM 32.5°F0.3°C 31.5°F-0.3°C 96% 2.0 mph SE3.2 kmh SE 9.0 mph14.5 kmh 29.34 in993.6 mb 0.01 in0.3 mm 0.00 in0.0 mm 0.08 in2.0 mm
11:30 AM 32.7°F0.4°C 31.4°F-0.3°C 95% 3.0 mph SSE4.8 kmh SSE 10.0 mph16.1 kmh 29.34 in993.6 mb 0.01 in0.3 mm 0.00 in0.0 mm 0.08 in2.0 mm
11:45 AM 32.7°F0.4°C 31.4°F-0.3°C 95% 3.0 mph SSE4.8 kmh SSE 10.0 mph16.1 kmh 29.34 in993.6 mb 0.01 in0.3 mm 0.00 in0.0 mm 0.08 in2.0 mm
12:00 PM 32.7°F0.4°C 31.4°F-0.3°C 95% 3.0 mph SE4.8 kmh SE 9.0 mph14.5 kmh 29.34 in993.6 mb 0.00 in0.0 mm 0.00 in0.0 mm 0.08 in2.0 mm
12:15 PM 32.7°F0.4°C 31.4°F-0.3°C 95% 2.0 mph SE3.2 kmh SE 7.0 mph11.3 kmh 29.34 in993.6 mb 0.00 in0.0 mm 0.00 in0.0 mm 0.08 in2.0 mm
12:30 PM 32.7°F0.4°C 31.4°F-0.3°C 95% 3.0 mph SSE4.8 kmh SSE 11.0 mph17.7 kmh 29.34 in993.6 mb 0.01 in0.3 mm 0.04 in1.0 mm 0.09 in2.3 mm
12:45 PM 32.7°F0.4°C 31.4°F-0.3°C 95% 3.0 mph SSE4.8 kmh SSE 7.0 mph11.3 kmh 29.34 in993.6 mb 0.01 in0.3 mm 0.00 in0.0 mm 0.09 in2.3 mm
01:00 PM 32.7°F0.4°C 31.4°F-0.3°C 95% 2.0 mph SE3.2 kmh SE 10.0 mph16.1 kmh 29.34 in993.6 mb 0.01 in0.3 mm 0.00 in0.0 mm 0.09 in2.3 mm
01:15 PM 32.7°F0.4°C 31.4°F-0.3°C 95% 2.0 mph S3.2 kmh S 5.0 mph8.0 kmh 29.34 in993.6 mb 0.01 in0.3 mm 0.00 in0.0 mm 0.09 in2.3 mm
01:30 PM 33.1°F0.6°C 31.8°F-0.1°C 95% 3.0 mph SSE4.8 kmh SSE 10.0 mph16.1 kmh 29.34 in993.6 mb 0.00 in0.0 mm 0.00 in0.0 mm 0.09 in2.3 mm
01:45 PM 33.1°F0.6°C 31.8°F-0.1°C 95% 2.0 mph SSE3.2 kmh SSE 10.0 mph16.1 kmh 29.33 in993.2 mb 0.00 in0.0 mm 0.00 in0.0 mm 0.09 in2.3 mm
02:00 PM 33.1°F0.6°C 31.8°F-0.1°C 95% 2.0 mph SSE3.2 kmh SSE 5.0 mph8.0 kmh 29.33 in993.2 mb 0.01 in0.3 mm 0.01 in0.3 mm 0.09 in2.3 mm
02:15 PM 33.1°F0.6°C 31.8°F-0.1°C 95% 2.0 mph SE3.2 kmh SE 9.0 mph14.5 kmh 29.33 in993.2 mb 0.01 in0.3 mm 0.00 in0.0 mm 0.09 in2.3 mm
02:30 PM 33.1°F0.6°C 31.8°F-0.1°C 95% 1.0 mph SSE1.6 kmh SSE 7.0 mph11.3 kmh 29.33 in993.2 mb 0.01 in0.3 mm 0.00 in0.0 mm 0.09 in2.3 mm
02:45 PM 33.1°F0.6°C 31.8°F-0.1°C 95% 2.0 mph SE3.2 kmh SE 7.0 mph11.3 kmh 29.33 in993.2 mb 0.01 in0.3 mm 0.00 in0.0 mm 0.09 in2.3 mm
03:00 PM 33.1°F0.6°C 31.8°F-0.1°C 95% 2.0 mph SE3.2 kmh SE 9.0 mph14.5 kmh 29.33 in993.2 mb 0.00 in0.0 mm 0.00 in0.0 mm 0.09 in2.3 mm
03:15 PM 32.7°F0.4°C 31.4°F-0.3°C 95% 1.0 mph SE1.6 kmh SE 5.0 mph8.0 kmh 29.33 in993.2 mb 0.01 in0.3 mm 0.04 in1.0 mm 0.10 in2.5 mm
03:30 PM 32.7°F0.4°C 31.4°F-0.3°C 95% 1.0 mph SE1.6 kmh SE 6.0 mph9.7 kmh 29.33 in993.2 mb 0.01 in0.3 mm 0.00 in0.0 mm 0.10 in2.5 mm
03:45 PM 32.7°F0.4°C 31.4°F-0.3°C 95% 1.0 mph SE1.6 kmh SE 4.0 mph6.4 kmh 29.33 in993.2 mb 0.01 in0.3 mm 0.00 in0.0 mm 0.10 in2.5 mm
04:00 PM 32.7°F0.4°C 31.4°F-0.3°C 95% 1.0 mph SE1.6 kmh SE 7.0 mph11.3 kmh 29.32 in992.9 mb 0.01 in0.3 mm 0.00 in0.0 mm 0.10 in2.5 mm
04:15 PM 32.7°F0.4°C 31.4°F-0.3°C 95% 1.0 mph SE1.6 kmh SE 7.0 mph11.3 kmh 29.32 in992.9 mb 0.00 in0.0 mm 0.00 in0.0 mm 0.10 in2.5 mm
04:30 PM 32.7°F0.4°C 31.4°F-0.3°C 95% 1.0 mph SSE1.6 kmh SSE 5.0 mph8.0 kmh 29.32 in992.9 mb 0.00 in0.0 mm 0.00 in0.0 mm 0.10 in2.5 mm
04:45 PM 32.7°F0.4°C 31.4°F-0.3°C 95% 2.0 mph SE3.2 kmh SE 5.0 mph8.0 kmh 29.32 in992.9 mb 0.00 in0.0 mm 0.00 in0.0 mm 0.10 in2.5 mm
05:00 PM 32.7°F0.4°C 31.4°F-0.3°C 95% 2.0 mph SSE3.2 kmh SSE 7.0 mph11.3 kmh 29.32 in992.9 mb 0.00 in0.0 mm 0.00 in0.0 mm 0.10 in2.5 mm
05:15 PM 32.7°F0.4°C 31.4°F-0.3°C 95% 1.0 mph SSE1.6 kmh SSE 5.0 mph8.0 kmh 29.32 in992.9 mb 0.00 in0.0 mm 0.00 in0.0 mm 0.10 in2.5 mm
05:30 PM 32.7°F0.4°C 31.4°F-0.3°C 95% 3.0 mph SE4.8 kmh SE 7.0 mph11.3 kmh 29.32 in992.9 mb 0.00 in0.0 mm 0.00 in0.0 mm 0.10 in2.5 mm
05:45 PM 32.7°F0.4°C 31.4°F-0.3°C 95% 1.0 mph SE1.6 kmh SE 6.0 mph9.7 kmh 29.32 in992.9 mb 0.00 in0.0 mm 0.00 in0.0 mm 0.10 in2.5 mm
06:00 PM 32.7°F0.4°C 31.4°F-0.3°C 95% 1.0 mph SSE1.6 kmh SSE 6.0 mph9.7 kmh 29.32 in992.9 mb 0.01 in0.3 mm 0.01 in0.3 mm 0.11 in2.8 mm
06:15 PM 32.5°F0.3°C 31.3°F-0.4°C 95% 1.0 mph SSE1.6 kmh SSE 6.0 mph9.7 kmh 29.32 in992.9 mb 0.01 in0.3 mm 0.00 in0.0 mm 0.11 in2.8 mm
06:30 PM 32.5°F0.3°C 31.3°F-0.4°C 95% 1.0 mph SE1.6 kmh SE 6.0 mph9.7 kmh 29.32 in992.9 mb 0.02 in0.5 mm 0.04 in1.0 mm 0.12 in3.0 mm
06:45 PM 32.5°F0.3°C 31.3°F-0.4°C 95% 1.0 mph SE1.6 kmh SE 6.0 mph9.7 kmh 29.32 in992.9 mb 0.02 in0.5 mm 0.00 in0.0 mm 0.13 in3.3 mm
07:00 PM 32.4°F0.2°C 31.1°F-0.5°C 95% Calm Calm 3.0 mph4.8 kmh 29.32 in992.9 mb 0.02 in0.5 mm 0.00 in0.0 mm 0.13 in3.3 mm
07:15 PM 32.4°F0.2°C 31.1°F-0.5°C 95% 2.0 mph SE3.2 kmh SE 6.0 mph9.7 kmh 29.31 in992.6 mb 0.02 in0.5 mm 0.00 in0.0 mm 0.13 in3.3 mm
07:30 PM 32.4°F0.2°C 31.1°F-0.5°C 95% 1.0 mph SSE1.6 kmh SSE 5.0 mph8.0 kmh 29.32 in992.9 mb 0.02 in0.5 mm 0.00 in0.0 mm 0.13 in3.3 mm
07:45 PM 32.4°F0.2°C 31.1°F-0.5°C 95% 1.0 mph SSE1.6 kmh SSE 4.0 mph6.4 kmh 29.32 in992.9 mb 0.01 in0.3 mm 0.00 in0.0 mm 0.13 in3.3 mm
08:00 PM 32.4°F0.2°C 31.1°F-0.5°C 95% 1.0 mph SSE1.6 kmh SSE 4.0 mph6.4 kmh 29.32 in992.9 mb 0.00 in0.0 mm 0.00 in0.0 mm 0.13 in3.3 mm
08:15 PM 32.4°F0.2°C 31.1°F-0.5°C 95% 1.0 mph SE1.6 kmh SE 5.0 mph8.0 kmh 29.32 in992.9 mb 0.00 in0.0 mm 0.00 in0.0 mm 0.13 in3.3 mm
08:30 PM 32.4°F0.2°C 31.1°F-0.5°C 95% 1.0 mph SE1.6 kmh SE 5.0 mph8.0 kmh 29.32 in992.9 mb 0.01 in0.3 mm 0.04 in1.0 mm 0.14 in3.6 mm
08:45 PM 32.4°F0.2°C 31.1°F-0.5°C 95% Calm Calm 3.0 mph4.8 kmh 29.33 in993.2 mb 0.01 in0.3 mm 0.00 in0.0 mm 0.14 in3.6 mm
09:00 PM 32.4°F0.2°C 31.3°F-0.4°C 96% Calm Calm 3.0 mph4.8 kmh 29.33 in993.2 mb 0.01 in0.3 mm 0.00 in0.0 mm 0.14 in3.6 mm
09:15 PM 32.4°F0.2°C 31.3°F-0.4°C 96% Calm Calm 2.0 mph3.2 kmh 29.33 in993.2 mb 0.01 in0.3 mm 0.00 in0.0 mm 0.14 in3.6 mm
09:30 PM 32.4°F0.2°C 31.3°F-0.4°C 96% Calm Calm 1.0 mph1.6 kmh 29.34 in993.6 mb 0.00 in0.0 mm 0.00 in0.0 mm 0.14 in3.6 mm
09:45 PM 32.4°F0.2°C 31.3°F-0.4°C 96% Calm Calm 1.0 mph1.6 kmh 29.34 in993.6 mb 0.00 in0.0 mm 0.00 in0.0 mm 0.14 in3.6 mm
10:00 PM 32.4°F0.2°C 31.3°F-0.4°C 96% Calm Calm 1.0 mph1.6 kmh 29.34 in993.6 mb 0.00 in0.0 mm 0.00 in0.0 mm 0.14 in3.6 mm
10:15 PM 32.4°F0.2°C 31.3°F-0.4°C 96% Calm Calm -- 29.35 in993.9 mb 0.00 in0.0 mm 0.00 in0.0 mm 0.14 in3.6 mm
10:30 PM 32.2°F0.1°C 31.2°F-0.4°C 96% Calm Calm -- 29.36 in994.2 mb 0.00 in0.0 mm 0.00 in0.0 mm 0.14 in3.6 mm
10:45 PM 32.2°F0.1°C 31.2°F-0.4°C 96% Calm Calm -- 29.36 in994.2 mb 0.00 in0.0 mm 0.00 in0.0 mm 0.14 in3.6 mm
11:00 PM 32.2°F0.1°C 31.2°F-0.4°C 96% Calm Calm -- 29.37 in994.6 mb 0.00 in0.0 mm 0.00 in0.0 mm 0.14 in3.6 mm
11:15 PM 31.8°F-0.1°C 30.8°F-0.7°C 96% Calm Calm -- 29.37 in994.6 mb 0.00 in0.0 mm 0.00 in0.0 mm 0.14 in3.6 mm
11:30 PM 31.8°F-0.1°C 30.8°F-0.7°C 96% Calm Calm -- 29.39 in995.3 mb 0.00 in0.0 mm 0.00 in0.0 mm 0.14 in3.6 mm
11:45 PM 32.2°F0.1°C 31.2°F-0.4°C 96% Calm Calm -- 29.39 in995.3 mb 0.00 in0.0 mm 0.00 in0.0 mm 0.14 in3.6 mm